createdAt,value
2022-10-03T00:03:50.134Z,13.70
2022-10-03T00:10:30.434Z,13.50
2022-10-03T00:17:02.343Z,13.50
2022-10-03T00:23:41.990Z,13.40
2022-10-03T00:30:24.227Z,13.40
2022-10-03T00:36:35.421Z,13.20
2022-10-03T00:43:12.905Z,13.10
2022-10-03T00:49:28.647Z,13.10
2022-10-03T00:56:03.058Z,13.00
2022-10-03T01:02:25.744Z,12.80
2022-10-03T01:08:56.602Z,12.70
2022-10-03T01:15:07.910Z,12.70
2022-10-03T01:21:29.454Z,12.70
2022-10-03T01:28:14.964Z,12.60
2022-10-03T01:34:26.043Z,12.50
2022-10-03T01:40:40.861Z,12.40
2022-10-03T01:46:46.619Z,12.40
2022-10-03T01:53:09.404Z,12.40
2022-10-03T01:59:39.980Z,12.40
2022-10-03T02:05:54.844Z,12.40
2022-10-03T02:12:09.049Z,12.50
2022-10-03T02:18:14.294Z,12.70
2022-10-03T02:24:16.331Z,12.80
2022-10-03T02:30:30.578Z,12.90
2022-10-03T02:37:00.037Z,12.90
2022-10-03T02:43:36.312Z,13.00
2022-10-03T02:49:45.133Z,13.00
2022-10-03T02:55:53.299Z,13.00
2022-10-03T03:02:30.410Z,13.10
2022-10-03T03:08:34.020Z,13.10
2022-10-03T03:15:16.434Z,13.10
2022-10-03T03:21:47.314Z,13.10
2022-10-03T03:27:52.174Z,13.20
2022-10-03T03:34:19.422Z,13.20
2022-10-03T03:40:46.181Z,13.30
2022-10-03T03:47:03.432Z,13.20
2022-10-03T03:53:32.869Z,13.20
2022-10-03T04:00:05.515Z,13.20
2022-10-03T04:06:26.006Z,13.30
2022-10-03T04:12:37.874Z,13.30
2022-10-03T04:19:00.384Z,13.30
2022-10-03T04:25:54.966Z,13.30
2022-10-03T04:32:09.548Z,13.40
2022-10-03T04:38:21.574Z,13.50
2022-10-03T04:44:53.845Z,13.50
2022-10-03T04:51:01.740Z,13.50
2022-10-03T04:57:08.076Z,13.70
2022-10-03T05:03:29.195Z,13.90
2022-10-03T05:09:38.462Z,13.80
2022-10-03T05:16:05.202Z,13.90
2022-10-03T05:22:28.428Z,14.20
2022-10-03T05:28:37.147Z,14.40
2022-10-03T05:35:15.639Z,14.30
2022-10-03T05:41:17.874Z,14.70
2022-10-03T05:47:48.086Z,15.90
2022-10-03T05:54:27.625Z,16.20
2022-10-03T06:00:48.409Z,15.50
2022-10-03T06:07:14.464Z,15.30
2022-10-03T06:13:19.684Z,15.00
2022-10-03T06:19:53.011Z,14.90
2022-10-03T06:26:07.393Z,14.90
2022-10-03T06:32:19.875Z,15.20
2022-10-03T06:38:35.083Z,15.30
2022-10-03T06:44:46.307Z,15.20
2022-10-03T06:51:13.487Z,15.50
2022-10-03T06:57:38.164Z,16.00
2022-10-03T07:04:13.925Z,16.30
2022-10-03T07:10:47.276Z,16.70
2022-10-03T07:17:08.113Z,17.60
2022-10-03T07:23:40.704Z,17.60
2022-10-03T07:30:05.238Z,17.50
2022-10-03T07:36:41.562Z,17.70
2022-10-03T07:43:16.278Z,17.90
2022-10-03T07:49:25.687Z,17.90
2022-10-03T07:56:07.243Z,19.50
2022-10-03T08:02:42.036Z,22.50
2022-10-03T08:09:05.174Z,22.80
2022-10-03T08:15:21.751Z,21.30
2022-10-03T08:21:48.037Z,20.90
2022-10-03T08:28:26.097Z,20.40
2022-10-03T08:35:08.842Z,19.90
2022-10-03T08:41:22.996Z,19.90
2022-10-03T08:47:47.449Z,19.90
2022-10-03T08:53:52.381Z,19.60
2022-10-03T09:00:28.627Z,19.40
2022-10-03T09:07:23.387Z,19.90
2022-10-03T09:14:03.868Z,21.40
2022-10-03T09:20:44.269Z,20.60
2022-10-03T09:26:46.178Z,20.60
2022-10-03T09:32:48.067Z,21.20
2022-10-03T09:39:10.273Z,20.20
2022-10-03T09:45:47.559Z,20.10
2022-10-03T09:52:09.951Z,19.90
2022-10-03T09:58:24.088Z,20.10
2022-10-03T10:04:54.717Z,19.90
2022-10-03T10:11:12.298Z,20.40
2022-10-03T10:17:42.859Z,20.70
2022-10-03T10:24:19.137Z,20.60
2022-10-03T10:30:42.413Z,20.80
2022-10-03T10:37:21.806Z,21.00
2022-10-03T10:43:35.598Z,22.10
2022-10-03T10:49:57.547Z,24.00
2022-10-03T10:56:33.577Z,23.40
2022-10-03T11:03:17.462Z,27.30
2022-10-03T11:09:22.094Z,29.00
2022-10-03T11:15:43.821Z,26.70
2022-10-03T11:22:21.027Z,29.40
2022-10-03T11:29:08.644Z,30.10
2022-10-03T11:35:44.211Z,30.90
2022-10-03T11:42:27.951Z,31.20
2022-10-03T11:49:00.386Z,29.90
2022-10-03T11:55:27.107Z,26.30
2022-10-03T12:02:01.387Z,24.30
2022-10-03T12:08:28.099Z,23.60
2022-10-03T12:14:40.078Z,22.50
2022-10-03T12:20:44.864Z,22.20
2022-10-03T12:27:10.164Z,21.60
2022-10-03T12:33:29.698Z,19.20
2022-10-03T12:39:55.446Z,18.40
2022-10-03T12:46:28.509Z,18.00
2022-10-03T12:53:12.506Z,17.60
2022-10-03T12:59:19.321Z,16.70
2022-10-03T13:05:56.095Z,16.50
2022-10-03T13:12:24.211Z,16.60
2022-10-03T13:18:48.775Z,16.80
2022-10-03T13:25:00.328Z,16.40
2022-10-03T13:31:15.739Z,16.40
2022-10-03T13:37:48.958Z,16.70
2022-10-03T13:43:59.640Z,17.10
2022-10-03T13:50:06.501Z,16.90
2022-10-03T13:56:32.817Z,16.70
2022-10-03T14:02:42.609Z,16.50
2022-10-03T14:08:58.133Z,16.80
2022-10-03T14:15:15.678Z,16.90
2022-10-03T14:21:29.702Z,17.00
2022-10-03T14:27:46.531Z,17.00
2022-10-03T14:34:08.035Z,17.00
2022-10-03T14:40:20.246Z,17.00
2022-10-03T14:46:26.072Z,17.00
2022-10-03T14:52:44.281Z,16.90
2022-10-03T14:58:50.647Z,16.90
2022-10-03T15:04:56.639Z,16.80
2022-10-03T15:10:59.022Z,16.80
2022-10-03T15:17:04.263Z,16.80
2022-10-03T15:23:11.430Z,16.80
2022-10-03T15:29:18.311Z,16.50
2022-10-03T15:35:26.571Z,16.30
2022-10-03T15:41:36.798Z,16.10
2022-10-03T15:47:45.532Z,15.90
2022-10-03T15:53:51.992Z,15.80
2022-10-03T16:00:02.777Z,15.70
2022-10-03T16:06:35.974Z,15.50
2022-10-03T16:12:43.955Z,15.60
2022-10-03T16:19:02.607Z,15.50
2022-10-03T16:25:19.374Z,15.40
2022-10-03T16:31:28.941Z,15.50
2022-10-03T16:37:31.922Z,15.40
2022-10-03T16:43:35.076Z,15.30
2022-10-03T16:50:02.524Z,15.20
2022-10-03T16:56:08.438Z,15.00
2022-10-03T17:02:15.261Z,14.80
2022-10-03T17:08:40.667Z,14.70
2022-10-03T17:14:43.298Z,14.70
2022-10-03T17:20:52.307Z,14.60
2022-10-03T17:26:57.491Z,14.60
2022-10-03T17:33:09.018Z,14.50
2022-10-03T17:39:37.079Z,14.40
2022-10-03T17:45:48.325Z,14.40
2022-10-03T17:51:52.764Z,14.20
2022-10-03T17:57:58.817Z,14.20
2022-10-03T18:04:06.891Z,14.00
2022-10-03T18:10:19.608Z,13.90
2022-10-03T18:16:41.908Z,13.80
2022-10-03T18:22:49.402Z,13.80
2022-10-03T18:29:27.185Z,13.70
2022-10-03T18:35:34.875Z,13.60
2022-10-03T18:41:48.923Z,13.60
2022-10-03T18:47:56.648Z,13.60
2022-10-03T18:54:04.503Z,13.50
2022-10-03T19:00:20.647Z,13.50
2022-10-03T19:06:26.234Z,13.50
2022-10-03T19:12:34.821Z,13.50
2022-10-03T19:19:26.108Z,13.40
2022-10-03T19:25:29.730Z,13.30
2022-10-03T19:31:44.742Z,13.20
2022-10-03T19:37:52.208Z,13.10
2022-10-03T19:43:55.921Z,13.00
2022-10-03T19:50:06.808Z,12.90
2022-10-03T19:56:15.487Z,12.80
2022-10-03T20:02:25.984Z,12.80
2022-10-03T20:08:44.151Z,12.70
2022-10-03T20:14:51.745Z,12.70
2022-10-03T20:20:56.271Z,12.60
2022-10-03T20:27:13.528Z,12.50
2022-10-03T20:33:24.319Z,12.50
2022-10-03T20:39:31.786Z,12.40
2022-10-03T20:45:37.503Z,12.40
2022-10-03T20:51:43.694Z,12.40
2022-10-03T20:58:01.380Z,12.40
2022-10-03T21:04:18.911Z,12.40
2022-10-03T21:10:31.769Z,12.30
2022-10-03T21:16:45.208Z,12.30
2022-10-03T21:22:50.738Z,12.20
2022-10-03T21:29:27.031Z,12.20
2022-10-03T21:35:35.742Z,12.20
2022-10-03T21:41:51.350Z,12.10
2022-10-03T21:48:12.611Z,12.00
2022-10-03T21:54:36.482Z,12.00
2022-10-03T22:01:09.568Z,11.90
2022-10-03T22:07:17.927Z,11.90
2022-10-03T22:13:24.785Z,12.00
2022-10-03T22:19:32.724Z,12.10
2022-10-03T22:25:56.126Z,12.00
2022-10-03T22:32:07.633Z,12.00
2022-10-03T22:38:10.907Z,12.00
2022-10-03T22:44:14.893Z,11.90
2022-10-03T22:50:21.043Z,11.70
2022-10-03T22:56:35.061Z,11.60
2022-10-03T23:02:42.505Z,11.50
2022-10-03T23:09:05.394Z,11.50
2022-10-03T23:15:10.213Z,11.40
2022-10-03T23:21:13.042Z,11.40
2022-10-03T23:27:21.004Z,11.40
2022-10-03T23:33:35.057Z,11.30
2022-10-03T23:39:39.061Z,11.40
2022-10-03T23:45:43.175Z,11.50
2022-10-03T23:51:45.525Z,11.70
2022-10-03T23:57:48.392Z,11.80
